Time;durP1;ratioP1;P1;durP2;ratioP2;P2;SDS_P1;SDS_P2;PMS_P1;PMS_P2;Temp;Humidity;BMP_temperature;BMP_pressure;BME280_temperature;BME280_humidity;BME280_pressure;Samples;Min_cycle;Max_cycle;Signal;HPM_P1;HPM_P2
2023/09/18 00:00:18;;;;;;;13.15;9.50;;;;;;;19.62;100.00;100490.59;5051654;28;20042;-63
2023/09/18 00:03:06;;;;;;;13.05;8.90;;;;;;;19.66;100.00;100494.31;5053643;28;20049;-63
2023/09/18 00:05:54;;;;;;;15.27;10.57;;;;;;;19.66;100.00;100480.50;5054198;28;20045;-62
2023/09/18 00:08:43;;;;;;;14.98;9.60;;;;;;;19.64;100.00;100460.66;5046475;28;20056;-61
2023/09/18 00:11:31;;;;;;;13.90;10.20;;;;;;;19.64;100.00;100454.34;5038320;28;20434;-63
2023/09/18 00:14:19;;;;;;;12.43;9.73;;;;;;;19.61;100.00;100449.50;5040500;28;20053;-63
2023/09/18 00:17:08;;;;;;;14.57;10.85;;;;;;;19.60;100.00;100448.66;5033490;28;20053;-63
2023/09/18 00:19:56;;;;;;;14.75;10.82;;;;;;;19.62;100.00;100445.56;5032922;28;20041;-63
2023/09/18 00:22:44;;;;;;;13.88;9.70;;;;;;;19.61;100.00;100444.78;5033472;28;20049;-63
2023/09/18 00:25:32;;;;;;;12.57;8.23;;;;;;;19.62;100.00;100445.56;5021684;28;20061;-64
2023/09/18 00:28:20;;;;;;;15.20;10.18;;;;;;;19.63;100.00;100433.38;5023176;28;20490;-63
2023/09/18 00:31:09;;;;;;;15.40;10.95;;;;;;;19.60;100.00;100429.31;5038621;28;20059;-63
2023/09/18 00:33:57;;;;;;;15.75;10.18;;;;;;;19.59;100.00;100416.66;5038146;28;20136;-63
2023/09/18 00:36:46;;;;;;;16.38;10.63;;;;;;;19.61;100.00;100416.34;5051539;28;20460;-63
2023/09/18 00:39:34;;;;;;;19.25;10.95;;;;;;;19.58;100.00;100407.56;5049963;28;20059;-64
2023/09/18 00:42:22;;;;;;;15.82;10.20;;;;;;;19.55;100.00;100408.25;5037429;28;20509;-64
2023/09/18 00:45:10;;;;;;;13.18;10.13;;;;;;;19.54;100.00;100405.81;5037164;28;20437;-63
2023/09/18 00:47:58;;;;;;;17.02;11.52;;;;;;;19.53;100.00;100395.91;5028321;28;20048;-63
2023/09/18 00:50:47;;;;;;;14.20;10.13;;;;;;;19.52;100.00;100394.28;5027593;28;20535;-63
2023/09/18 00:53:38;;;;;;;17.38;10.70;;;;;;;19.51;100.00;100382.44;5050743;28;20045;-64
2023/09/18 00:56:26;;;;;;;19.15;11.38;;;;;;;19.50;100.00;100380.81;5016994;28;20417;-62
2023/09/18 00:59:15;;;;;;;13.88;10.30;;;;;;;19.49;100.00;100370.91;5046395;28;20041;-63
2023/09/18 01:02:03;;;;;;;14.73;10.85;;;;;;;19.50;100.00;100377.25;5051120;28;20552;-63
2023/09/18 01:04:51;;;;;;;17.25;11.40;;;;;;;19.50;100.00;100368.94;5052789;28;20051;-63
2023/09/18 01:07:39;;;;;;;12.30;8.40;;;;;;;19.51;100.00;100368.63;5051597;28;20045;-64
2023/09/18 01:10:55;;;;;;;14.35;10.60;;;;;;;19.52;100.00;100364.69;5037050;28;20500;-63
2023/09/18 01:13:51;;;;;;;15.73;11.20;;;;;;;19.52;100.00;100342.59;5018671;28;20057;-63
2023/09/18 01:16:59;;;;;;;15.88;9.75;;;;;;;19.52;100.00;100330.72;5017168;28;20049;-63
2023/09/18 01:19:48;;;;;;;13.05;8.98;;;;;;;19.51;100.00;100324.41;5022550;28;20048;-64
2023/09/18 01:22:36;;;;;;;14.38;9.07;;;;;;;19.54;100.00;100318.19;5048793;28;20051;-62
2023/09/18 01:25:24;;;;;;;15.73;10.40;;;;;;;19.55;100.00;100319.81;5051700;28;20485;-62
2023/09/18 01:28:12;;;;;;;18.52;11.05;;;;;;;19.55;100.00;100308.78;5039554;28;20057;-63
2023/09/18 01:31:00;;;;;;;15.27;10.13;;;;;;;19.56;100.00;100315.09;5032643;28;20053;-63
2023/09/18 01:33:49;;;;;;;15.95;10.40;;;;;;;19.55;100.00;100316.22;5044420;28;20041;-62
2023/09/18 01:36:37;;;;;;;18.83;10.77;;;;;;;19.54;100.00;100309.91;5052984;28;20056;-63
2023/09/18 01:39:27;;;;;;;14.55;9.40;;;;;;;19.55;100.00;100305.19;5031463;28;20048;-63
2023/09/18 01:42:15;;;;;;;17.45;10.50;;;;;;;19.56;100.00;100304.84;5051526;28;20405;-63
2023/09/18 01:45:05;;;;;;;15.43;9.93;;;;;;;19.57;100.00;100306.44;5024088;28;20045;-62
2023/09/18 01:47:53;;;;;;;15.48;10.23;;;;;;;19.59;100.00;100312.44;5030806;28;20128;-63
2023/09/18 01:50:41;;;;;;;17.13;9.85;;;;;;;19.59;100.00;100315.22;5040076;28;20048;-64
2023/09/18 01:53:30;;;;;;;16.30;10.90;;;;;;;19.59;100.00;100320.72;5017604;28;20069;-63
2023/09/18 01:56:19;;;;;;;15.52;10.30;;;;;;;19.59;100.00;100315.22;5016048;28;20050;-63
2023/09/18 01:59:07;;;;;;;16.67;9.68;;;;;;;19.59;100.00;100312.44;5018440;28;20053;-63
2023/09/18 02:01:55;;;;;;;19.80;10.00;;;;;;;19.59;100.00;100304.16;5037053;28;20426;-63
2023/09/18 02:04:45;;;;;;;17.70;9.25;;;;;;;19.61;100.00;100306.59;5051143;28;20041;-64
2023/09/18 02:07:53;;;;;;;17.70;9.35;;;;;;;19.61;100.00;100305.78;5023102;28;20413;-64
2023/09/18 02:10:41;;;;;;;17.35;8.80;;;;;;;19.61;100.00;100305.78;5033882;28;20119;-62
2023/09/18 02:13:29;;;;;;;17.25;8.90;;;;;;;19.61;100.00;100311.31;5031960;28;20045;-63
2023/09/18 02:16:22;;;;;;;15.23;8.30;;;;;;;19.61;100.00;100305.78;5052261;28;20045;-63
2023/09/18 02:19:14;;;;;;;16.02;8.95;;;;;;;19.60;100.00;100293.91;5051178;28;20041;-64
2023/09/18 02:22:02;;;;;;;12.32;8.00;;;;;;;19.61;100.00;100289.19;5022409;28;20056;-63
2023/09/18 02:24:50;;;;;;;15.35;8.40;;;;;;;19.62;100.00;100290.81;5018084;28;20037;-63
2023/09/18 02:27:39;;;;;;;13.55;7.88;;;;;;;19.61;100.00;100269.84;5031603;28;20049;-63
2023/09/18 02:30:28;;;;;;;14.07;8.30;;;;;;;19.60;100.00;100266.25;5018249;28;20052;-63
2023/09/18 02:33:16;;;;;;;15.98;8.30;;;;;;;19.62;100.00;100265.94;5031963;28;20061;-63
2023/09/18 02:36:05;;;;;;;11.05;6.43;;;;;;;19.63;100.00;100267.56;5019805;28;20065;-63
2023/09/18 02:38:53;;;;;;;13.07;6.25;;;;;;;19.64;100.00;100266.41;5052836;28;20051;-63
2023/09/18 02:41:41;;;;;;;12.73;7.07;;;;;;;19.64;100.00;100258.91;5041009;28;20052;-63
2023/09/18 02:44:29;;;;;;;12.73;6.72;;;;;;;19.63;100.00;100248.22;5053968;28;20059;-63
2023/09/18 02:47:17;;;;;;;12.63;7.32;;;;;;;19.62;100.00;100236.31;5014166;28;20584;-63
2023/09/18 02:50:06;;;;;;;11.43;6.13;;;;;;;19.61;100.00;100222.88;5041991;28;20135;-62
2023/09/18 02:52:54;;;;;;;10.43;6.30;;;;;;;19.63;100.00;100215.06;5056397;28;20412;-63
2023/09/18 02:55:43;;;;;;;16.38;6.78;;;;;;;19.62;100.00;100203.16;5020116;28;20486;-62
2023/09/18 02:58:31;;;;;;;11.98;7.45;;;;;;;19.59;100.00;100193.59;5045795;28;20064;-62
2023/09/18 03:01:19;;;;;;;14.90;8.25;;;;;;;19.57;100.00;100195.91;5032556;28;20443;-63
2023/09/18 03:04:07;;;;;;;15.30;7.57;;;;;;;19.55;100.00;100189.94;5043913;28;20044;-63
2023/09/18 03:06:55;;;;;;;16.45;7.38;;;;;;;19.56;100.00;100188.78;5034771;28;20044;-62
2023/09/18 03:09:43;;;;;;;14.60;8.02;;;;;;;19.56;100.00;100188.78;5048814;28;20150;-62
2023/09/18 03:12:32;;;;;;;16.25;7.38;;;;;;;19.56;100.00;100188.78;5040152;28;20122;-62
2023/09/18 03:15:20;;;;;;;13.80;7.60;;;;;;;19.55;100.00;100183.59;5033799;28;20049;-62
2023/09/18 03:18:08;;;;;;;10.93;6.10;;;;;;;19.57;100.00;100184.84;5032653;28;20128;-62
2023/09/18 03:20:57;;;;;;;12.25;6.10;;;;;;;19.59;100.00;100196.38;5032919;28;20049;-63
2023/09/18 03:23:45;;;;;;;14.77;7.97;;;;;;;19.59;100.00;100209.38;5005098;28;20128;-62
2023/09/18 03:26:33;;;;;;;12.57;5.95;;;;;;;19.63;100.00;100184.66;5042544;28;20049;-63
2023/09/18 03:29:22;;;;;;;17.00;6.63;;;;;;;19.61;100.00;100176.69;5041299;28;20137;-64
2023/09/18 03:32:12;;;;;;;8.15;4.88;;;;;;;19.61;100.00;100176.69;5040060;28;20052;-63
2023/09/18 03:35:01;;;;;;;11.75;5.68;;;;;;;19.64;100.00;100195.34;5039270;28;20060;-64
2023/09/18 03:37:53;;;;;;;17.30;6.88;;;;;;;19.63;100.00;100190.97;5031490;28;20085;-64
2023/09/18 03:40:43;;;;;;;15.80;6.05;;;;;;;19.64;100.00;100189.00;5032675;28;20397;-63
2023/09/18 03:43:31;;;;;;;12.18;5.88;;;;;;;19.64;100.00;100194.53;5020552;28;20567;-63
2023/09/18 03:46:19;;;;;;;10.25;4.95;;;;;;;19.65;100.00;100204.44;5017712;28;20044;-63
2023/09/18 03:49:09;;;;;;;9.70;5.13;;;;;;;19.71;100.00;100195.59;5012137;28;20042;-62
2023/09/18 03:51:58;;;;;;;15.20;6.30;;;;;;;19.70;100.00;100176.59;5007883;28;20490;-62
2023/09/18 03:54:47;;;;;;;15.32;6.10;;;;;;;19.70;100.00;100198.69;5020669;28;20200;-64
2023/09/18 03:57:36;;;;;;;12.52;5.07;;;;;;;19.72;100.00;100204.69;5027701;28;20083;-64
2023/09/18 04:00:24;;;;;;;13.73;5.70;;;;;;;19.70;100.00;100195.94;5039668;28;20041;-64
2023/09/18 04:03:13;;;;;;;18.33;6.45;;;;;;;19.71;100.00;100192.03;5051781;28;20561;-64
2023/09/18 04:06:01;;;;;;;15.48;5.45;;;;;;;19.69;100.00;100197.91;5040680;28;20136;-64
2023/09/18 04:08:51;;;;;;;12.73;4.68;;;;;;;19.73;100.00;100196.06;5019906;28;20401;-64
2023/09/18 04:11:39;;;;;;;14.02;5.25;;;;;;;19.79;100.00;100174.53;5025030;28;20098;-64
2023/09/18 04:14:27;;;;;;;15.07;5.45;;;;;;;19.78;100.00;100170.16;5053033;28;20147;-64
2023/09/18 04:17:15;;;;;;;13.77;5.25;;;;;;;19.77;100.00;100177.66;5051125;28;20073;-63
2023/09/18 04:20:04;;;;;;;13.88;5.40;;;;;;;19.82;100.00;100192.38;5053389;28;20060;-63
2023/09/18 04:23:20;;;;;;;11.48;4.97;;;;;;;19.83;100.00;100180.97;5037106;28;20041;-63
2023/09/18 04:26:08;;;;;;;10.63;5.15;;;;;;;19.88;100.00;100200.09;5032579;28;20084;-63
2023/09/18 04:29:00;;;;;;;12.98;4.72;;;;;;;19.88;100.00;100199.31;5018909;28;20155;-63
2023/09/18 04:31:50;;;;;;;11.20;4.53;;;;;;;19.86;100.00;100194.09;5020034;28;20516;-64
2023/09/18 04:34:39;;;;;;;10.00;4.57;;;;;;;19.85;100.00;100189.75;5018099;28;20052;-64
2023/09/18 04:37:27;;;;;;;11.75;4.68;;;;;;;19.83;100.00;100189.28;5031682;28;20421;-62
2023/09/18 04:40:15;;;;;;;11.60;4.60;;;;;;;19.90;100.00;100175.69;5036756;28;20055;-63
2023/09/18 04:43:04;;;;;;;9.98;4.80;;;;;;;19.89;100.00;100174.06;5051237;28;20041;-63
2023/09/18 04:45:52;;;;;;;9.93;4.90;;;;;;;19.88;100.00;100157.81;5037344;28;20049;-63
2023/09/18 04:48:40;;;;;;;9.65;4.22;;;;;;;19.84;100.00;100154.94;5031122;28;20067;-63
2023/09/18 04:51:28;;;;;;;12.75;5.15;;;;;;;19.83;100.00;100142.28;5038002;28;20045;-64
2023/09/18 04:54:16;;;;;;;13.45;5.47;;;;;;;19.81;100.00;100138.25;5023612;28;20118;-64
2023/09/18 04:57:05;;;;;;;12.45;5.57;;;;;;;19.76;100.00;100126.25;5031420;28;20135;-64
2023/09/18 04:59:54;;;;;;;8.07;4.72;;;;;;;19.73;100.00;100126.16;5032139;28;20069;-64
2023/09/18 05:03:02;;;;;;;14.68;5.45;;;;;;;19.70;100.00;100101.97;5018858;28;20049;-64
2023/09/18 05:05:51;;;;;;;10.63;5.35;;;;;;;19.67;100.00;100103.44;5027422;28;20056;-63
2023/09/18 05:08:39;;;;;;;12.68;4.80;;;;;;;19.66;100.00;100099.06;5038676;28;20041;-64
2023/09/18 05:11:27;;;;;;;10.95;5.00;;;;;;;19.65;100.00;100094.72;5052551;28;20420;-62
2023/09/18 05:14:16;;;;;;;10.13;4.80;;;;;;;19.65;100.00;100103.00;5049638;28;20142;-61
2023/09/18 05:17:04;;;;;;;9.38;5.00;;;;;;;19.65;100.00;100096.66;5031436;28;20050;-63
2023/09/18 05:19:52;;;;;;;10.75;5.47;;;;;;;19.64;100.00;100101.38;5032169;28;20074;-63
2023/09/18 05:22:40;;;;;;;11.70;5.40;;;;;;;19.64;100.00;100101.38;5050956;28;20052;-64
2023/09/18 05:25:31;;;;;;;10.68;5.13;;;;;;;19.64;100.00;100106.09;5028410;28;20046;-62
2023/09/18 05:28:20;;;;;;;7.70;4.60;;;;;;;19.63;100.00;100113.59;5032784;28;20074;-61
2023/09/18 05:31:09;;;;;;;12.15;5.32;;;;;;;19.64;100.00;100112.44;5041667;28;20080;-62
2023/09/18 05:33:57;;;;;;;9.35;4.88;;;;;;;19.63;100.00;100115.56;5035282;28;20413;-63
2023/09/18 05:36:45;;;;;;;9.27;4.90;;;;;;;19.65;100.00;100122.34;5032570;28;20503;-62
2023/09/18 05:39:33;;;;;;;13.35;5.47;;;;;;;19.68;100.00;100141.03;5050237;28;20080;-63
2023/09/18 05:42:21;;;;;;;11.98;5.63;;;;;;;19.72;100.00;100130.91;5052769;28;20501;-62
2023/09/18 05:45:11;;;;;;;13.23;4.60;;;;;;;19.85;100.00;100134.44;5035657;28;20045;-62
2023/09/18 05:48:03;;;;;;;11.18;4.80;;;;;;;19.88;100.00;100138.47;5005901;28;20473;-64
2023/09/18 05:50:54;;;;;;;8.60;4.38;;;;;;;19.82;100.00;100145.38;5018432;28;20123;-61
2023/09/18 05:53:42;;;;;;;7.75;4.38;;;;;;;19.79;100.00;100136.66;5031628;28;20045;-62
2023/09/18 05:56:30;;;;;;;8.95;4.22;;;;;;;19.86;100.00;100157.38;5024423;28;20183;-63
2023/09/18 05:59:20;;;;;;;8.40;3.90;;;;;;;19.84;100.00;100162.44;4345829;28;10000718;-63
2023/09/18 06:02:08;;;;;;;14.80;4.07;;;;;;;19.84;100.00;100151.38;5036252;28;20180;-63
2023/09/18 06:05:00;;;;;;;8.88;3.60;;;;;;;19.85;100.00;100155.75;5034849;28;20057;-63
2023/09/18 06:07:49;;;;;;;8.27;3.85;;;;;;;19.83;100.00;100152.53;5022709;28;20124;-63
2023/09/18 06:10:38;;;;;;;8.32;3.28;;;;;;;19.88;100.00;100158.63;5041171;28;20112;-65
2023/09/18 06:13:27;;;;;;;8.23;3.53;;;;;;;20.03;100.00;100161.84;5038928;28;20068;-64
2023/09/18 06:16:15;;;;;;;8.90;3.85;;;;;;;20.16;100.00;100182.81;5048410;28;20048;-61
2023/09/18 06:19:03;;;;;;;5.60;3.03;;;;;;;20.11;100.00;100199.63;5032141;28;20075;-63
2023/09/18 06:21:51;;;;;;;7.82;3.40;;;;;;;20.06;100.00;100199.84;5013360;28;20132;-62
2023/09/18 06:24:39;;;;;;;4.88;2.88;;;;;;;20.02;100.00;100194.22;5041608;28;20420;-63
2023/09/18 06:27:27;;;;;;;7.10;3.00;;;;;;;19.95;100.00;100185.69;5047398;28;20068;-64
2023/09/18 06:30:16;;;;;;;8.23;2.88;;;;;;;19.90;100.00;100192.28;5026840;28;20128;-63
2023/09/18 06:33:04;;;;;;;3.75;2.70;;;;;;;19.86;100.00;100179.47;5044683;28;20045;-63
2023/09/18 06:35:52;;;;;;;3.17;2.40;;;;;;;19.92;100.00;100200.22;5043584;28;20045;-63
2023/09/18 06:38:41;;;;;;;8.52;2.80;;;;;;;19.89;100.00;100198.13;5025008;28;20053;-63
2023/09/18 06:41:29;;;;;;;4.95;2.65;;;;;;;19.82;100.00;100184.06;5032569;28;20072;-63
2023/09/18 06:44:17;;;;;;;6.40;2.67;;;;;;;19.86;100.00;100190.53;5048914;28;20041;-63
2023/09/18 06:47:05;;;;;;;7.50;2.47;;;;;;;20.00;100.00;100204.81;5007893;28;20033;-62
2023/09/18 06:49:53;;;;;;;5.93;2.60;;;;;;;20.19;100.00;100215.28;5050283;28;20052;-62
2023/09/18 06:52:41;;;;;;;6.25;2.90;;;;;;;20.03;100.00;100222.69;5034640;28;20040;-64
2023/09/18 06:55:29;;;;;;;6.88;2.78;;;;;;;20.12;100.00;100226.13;5049929;28;20049;-62
2023/09/18 06:58:17;;;;;;;4.25;2.22;;;;;;;20.07;100.00;100223.59;5031876;28;20099;-62
2023/09/18 07:01:09;;;;;;;5.80;2.40;;;;;;;20.07;100.00;100224.41;5030991;28;20038;-63
2023/09/18 07:03:59;;;;;;;9.52;2.53;;;;;;;20.05;100.00;100226.72;5041594;28;20068;-63
2023/09/18 07:06:47;;;;;;;4.75;2.42;;;;;;;20.03;100.00;100226.25;5032559;28;20047;-62
2023/09/18 07:09:35;;;;;;;6.95;2.53;;;;;;;19.97;100.00;100222.09;5049832;28;20053;-63
2023/09/18 07:12:38;;;;;;;4.97;2.30;;;;;;;19.94;100.00;100218.09;5032808;28;20472;-63
2023/09/18 07:15:26;;;;;;;5.85;2.60;;;;;;;19.93;100.00;100216.44;5040813;28;20052;-61
2023/09/18 07:18:14;;;;;;;12.73;3.47;;;;;;;19.98;100.00;100204.34;5050719;28;20045;-63
2023/09/18 07:21:02;;;;;;;13.52;3.60;;;;;;;20.08;100.00;100225.19;5030486;28;20142;-63
2023/09/18 07:23:51;;;;;;;10.77;3.55;;;;;;;20.25;100.00;100229.69;5021002;28;20042;-63
2023/09/18 07:26:39;;;;;;;6.78;2.60;;;;;;;20.18;100.00;100224.75;5033552;28;20053;-63
2023/09/18 07:29:27;;;;;;;12.13;3.83;;;;;;;20.11;100.00;100221.75;5051486;28;20049;-63
2023/09/18 07:32:15;;;;;;;14.93;5.10;;;;;;;20.05;100.00;100220.38;5039721;28;20045;-62
2023/09/18 07:35:23;;;;;;;11.95;3.90;;;;;;;20.15;100.00;100242.81;5030516;28;20497;-62
2023/09/18 07:38:12;;;;;;;13.70;3.50;;;;;;;20.14;100.00;100243.19;5041572;28;20081;-61
2023/09/18 07:41:00;;;;;;;10.63;3.58;;;;;;;20.20;100.00;100245.38;5037720;28;20041;-61
2023/09/18 07:43:48;;;;;;;10.55;3.70;;;;;;;20.22;100.00;100247.78;5036349;28;20052;-61
2023/09/18 07:46:36;;;;;;;11.48;3.38;;;;;;;20.10;100.00;100229.22;5052813;28;20082;-62
2023/09/18 07:49:24;;;;;;;13.25;4.35;;;;;;;20.08;100.00;100234.31;5051748;28;20052;-64
2023/09/18 07:52:12;;;;;;;8.18;3.25;;;;;;;20.04;100.00;100235.38;5030216;28;20041;-62
2023/09/18 07:55:00;;;;;;;8.95;3.33;;;;;;;19.98;100.00;100238.34;5027080;28;20041;-63
2023/09/18 07:57:49;;;;;;;10.90;3.17;;;;;;;20.14;100.00;100257.03;5019133;28;20160;-61
2023/09/18 08:00:37;;;;;;;9.32;3.15;;;;;;;20.11;100.00;100246.66;5034346;28;20057;-62
2023/09/18 08:03:25;;;;;;;9.32;4.00;;;;;;;20.16;100.00;100244.44;5037269;28;20087;-62
2023/09/18 08:06:15;;;;;;;8.95;3.78;;;;;;;20.25;100.00;100236.00;5053127;28;20045;-62
2023/09/18 08:09:04;;;;;;;8.40;2.78;;;;;;;20.16;100.00;100249.19;5054363;28;20481;-62
2023/09/18 08:11:55;;;;;;;15.38;4.47;;;;;;;20.15;100.00;100250.31;5054240;28;20037;-62
2023/09/18 08:14:43;;;;;;;11.63;3.58;;;;;;;20.09;100.00;100251.72;5053382;28;20067;-62
2023/09/18 08:17:31;;;;;;;10.30;3.70;;;;;;;20.05;100.00;100234.19;5041433;28;20057;-62
2023/09/18 08:20:20;;;;;;;9.93;3.92;;;;;;;20.17;100.00;100235.00;5034636;28;20052;-62
2023/09/18 08:23:11;;;;;;;11.45;4.10;;;;;;;20.25;100.00;100235.22;5019111;28;20267;-62
2023/09/18 08:25:59;;;;;;;8.80;3.75;;;;;;;20.32;100.00;100241.75;5033467;28;20414;-64
2023/09/18 08:28:47;;;;;;;10.52;3.95;;;;;;;20.26;100.00;100247.91;5021333;28;20052;-62
2023/09/18 08:31:35;;;;;;;15.63;4.03;;;;;;;20.33;100.00;100262.75;5031309;28;20545;-62
2023/09/18 08:34:23;;;;;;;11.68;3.42;;;;;;;20.31;100.00;100267.84;5034283;28;20050;-62
2023/09/18 08:37:15;;;;;;;8.05;2.97;;;;;;;20.32;100.00;100266.66;5038449;28;20049;-61
2023/09/18 08:40:09;;;;;;;7.35;2.90;;;;;;;20.23;100.00;100274.31;5025377;28;20412;-61
2023/09/18 08:43:03;;;;;;;15.60;3.75;;;;;;;20.21;100.00;100284.91;5032315;28;20058;-63
2023/09/18 08:45:53;;;;;;;7.00;2.83;;;;;;;20.08;100.00;100281.31;5034383;28;20048;-61
2023/09/18 08:48:42;;;;;;;6.93;2.97;;;;;;;20.16;100.00;100283.19;5031402;28;20045;-62
2023/09/18 08:51:30;;;;;;;10.20;3.63;;;;;;;20.25;100.00;100290.53;5032158;28;20052;-61
2023/09/18 08:54:19;;;;;;;9.55;3.55;;;;;;;20.41;100.00;100295.03;5037369;28;20500;-60
2023/09/18 08:57:08;;;;;;;8.43;3.17;;;;;;;20.39;100.00;100291.78;5024065;28;20045;-62
2023/09/18 08:59:57;;;;;;;8.13;3.17;;;;;;;20.40;100.00;100287.09;5038959;28;20489;-62
2023/09/18 09:02:48;;;;;;;8.00;3.40;;;;;;;20.30;100.00;100282.00;5052477;28;20045;-62
2023/09/18 09:05:37;;;;;;;8.27;3.17;;;;;;;20.27;100.00;100289.03;5035991;28;20052;-61
2023/09/18 09:08:25;;;;;;;7.40;3.00;;;;;;;20.42;100.00;100296.66;5038281;28;20504;-62
2023/09/18 09:11:13;;;;;;;9.32;3.70;;;;;;;20.48;100.00;100291.69;5037754;28;20568;-64
2023/09/18 09:14:19;;;;;;;9.50;3.00;;;;;;;20.40;100.00;100281.56;5036087;28;20041;-62
2023/09/18 09:17:07;;;;;;;9.48;3.13;;;;;;;20.48;100.00;100271.50;5033763;28;20523;-62
2023/09/18 09:20:10;;;;;;;7.65;2.90;;;;;;;20.41;100.00;100270.13;5051976;28;20049;-62
2023/09/18 09:23:03;;;;;;;7.10;2.80;;;;;;;20.53;100.00;100274.84;5052072;28;20128;-62
2023/09/18 09:25:51;;;;;;;10.65;3.13;;;;;;;20.52;100.00;100272.44;5052340;28;20493;-62
2023/09/18 09:28:40;;;;;;;7.88;2.63;;;;;;;20.60;100.00;100277.03;5038660;28;20057;-62
2023/09/18 09:31:30;;;;;;;6.75;3.00;;;;;;;20.57;100.00;100277.75;5026413;28;20060;-62
2023/09/18 09:34:26;;;;;;;6.75;2.67;;;;;;;20.52;100.00;100283.50;5030297;28;20049;-62
2023/09/18 09:37:15;;;;;;;8.60;3.22;;;;;;;20.53;100.00;100296.97;5051088;28;20481;-64
2023/09/18 09:40:09;;;;;;;11.40;5.47;;;;;;;;;;5052398;28;20080;-62
2023/09/18 09:43:00;;;;;;;8.38;3.00;;;;;;;20.59;100.00;100301.16;5050203;28;20073;-64
2023/09/18 09:45:49;;;;;;;9.07;3.58;;;;;;;20.67;100.00;100306.91;5031837;28;20048;-62
2023/09/18 09:48:37;;;;;;;10.50;3.60;;;;;;;20.65;100.00;100315.56;5032765;28;20045;-62
2023/09/18 09:51:25;;;;;;;12.02;4.10;;;;;;;20.68;100.00;100312.09;5043424;28;20049;-65
2023/09/18 09:54:14;;;;;;;8.93;3.30;;;;;;;20.62;100.00;100311.53;5051481;28;20483;-66
2023/09/18 09:57:05;;;;;;;6.65;3.10;;;;;;;20.60;100.00;100304.72;5033571;28;20494;-64
2023/09/18 10:00:21;;;;;;;11.07;3.40;;;;;;;20.69;100.00;100313.72;5038061;28;20116;-63
2023/09/18 10:03:15;;;;;;;9.98;3.13;;;;;;;20.77;100.00;100304.47;5035512;28;20045;-62
2023/09/18 10:06:10;;;;;;;4.22;2.67;;;;;;;20.80;100.00;100314.81;5050936;28;20080;-63
2023/09/18 10:08:58;;;;;;;10.75;3.20;;;;;;;20.84;100.00;100314.94;5039708;28;20409;-63
2023/09/18 10:11:51;;;;;;;8.40;3.03;;;;;;;20.86;100.00;100329.25;5028438;28;21725;-62
2023/09/18 10:14:42;;;;;;;7.32;3.10;;;;;;;20.88;100.00;100340.78;5049300;28;20045;-63
2023/09/18 10:17:50;;;;;;;12.07;3.13;;;;;;;20.87;100.00;100338.38;5037793;28;20409;-64
2023/09/18 10:20:43;;;;;;;8.02;3.40;;;;;;;20.89;100.00;100341.59;4671463;28;10001487;-64
2023/09/18 10:24:00;;;;;;;8.73;3.42;;;;;;;20.99;100.00;100352.19;4678585;28;10001101;-64
2023/09/18 10:27:00;;;;;;;8.05;3.17;;;;;;;20.94;100.00;100358.75;5018714;28;20124;-63
2023/09/18 10:29:51;;;;;;;5.38;2.70;;;;;;;20.96;100.00;100347.34;5032327;28;20724;-63
2023/09/18 10:32:41;;;;;;;8.70;3.38;;;;;;;21.04;100.00;100354.69;5034342;28;20068;-63
2023/09/18 10:35:29;;;;;;;8.55;3.10;;;;;;;21.01;100.00;100338.78;5014418;28;20613;-65
2023/09/18 10:38:17;;;;;;;4.70;2.70;;;;;;;21.00;100.00;100332.44;5013089;28;20057;-63
2023/09/18 10:41:08;;;;;;;8.50;2.95;;;;;;;21.01;100.00;100319.41;5000959;28;20069;-64
2023/09/18 10:43:57;;;;;;;8.88;3.05;;;;;;;21.10;100.00;100335.88;5001227;28;20045;-64
2023/09/18 10:46:46;;;;;;;8.15;2.90;;;;;;;21.18;100.00;100340.47;5040353;28;20457;-64
2023/09/18 10:49:35;;;;;;;5.57;2.85;;;;;;;21.17;100.00;100336.91;5033209;28;20094;-63
2023/09/18 10:52:23;;;;;;;7.75;3.53;;;;;;;21.15;100.00;100330.09;5047350;28;20056;-63
2023/09/18 10:55:13;;;;;;;7.68;3.00;;;;;;;21.21;100.00;100317.59;5031873;28;20052;-64
2023/09/18 10:58:02;;;;;;;5.65;2.70;;;;;;;21.17;100.00;100323.03;5050452;28;20056;-64
2023/09/18 11:00:50;;;;;;;7.15;2.65;;;;;;;21.20;100.00;100307.69;5051729;28;20136;-64
2023/09/18 11:03:38;;;;;;;6.45;2.60;;;;;;;21.32;100.00;100304.06;5050533;28;20156;-63
2023/09/18 11:06:27;;;;;;;8.23;3.10;;;;;;;21.31;100.00;100311.56;5036983;28;20059;-63
2023/09/18 11:09:26;;;;;;;8.13;3.40;;;;;;;21.18;100.00;100302.47;5035672;28;20049;-63
2023/09/18 11:12:17;;;;;;;10.45;3.70;;;;;;;21.07;100.00;100315.25;5021205;28;20424;-64
2023/09/18 11:15:06;;;;;;;7.63;3.20;;;;;;;21.06;100.00;100321.91;5032670;28;20038;-63
2023/09/18 11:18:02;;;;;;;6.68;2.90;;;;;;;21.05;100.00;100318.34;5033235;28;20116;-63
2023/09/18 11:21:12;;;;;;;10.55;3.42;;;;;;;21.23;100.00;100324.38;5017178;28;20095;-64
2023/09/18 11:24:05;;;;;;;6.93;3.10;;;;;;;21.13;100.00;100319.34;5032643;28;20045;-64
2023/09/18 11:26:53;;;;;;;7.72;3.47;;;;;;;21.09;100.00;100323.97;5025052;28;20048;-63
2023/09/18 11:29:41;;;;;;;9.02;3.75;;;;;;;21.09;100.00;100337.84;5037466;28;20050;-63
2023/09/18 11:32:40;;;;;;;7.57;3.47;;;;;;;21.10;100.00;100336.69;5029452;28;20140;-63
2023/09/18 11:35:29;;;;;;;8.32;3.80;;;;;;;21.15;100.00;100333.66;5016492;28;20358;-62
2023/09/18 11:38:17;;;;;;;12.88;3.70;;;;;;;21.19;100.00;100337.34;5020524;28;20065;-63
2023/09/18 11:41:25;;;;;;;9.98;3.80;;;;;;;21.16;100.00;100334.47;5046814;28;20067;-62
2023/09/18 11:44:19;;;;;;;5.53;2.80;;;;;;;21.18;100.00;100332.97;5049086;28;20056;-63
2023/09/18 11:47:12;;;;;;;7.88;2.90;;;;;;;21.18;100.00;100332.16;5053106;28;20056;-63
2023/09/18 11:50:00;;;;;;;6.88;3.05;;;;;;;21.23;100.00;100323.59;5046875;28;20385;-63
2023/09/18 11:52:50;;;;;;;7.45;3.42;;;;;;;21.30;100.00;100336.84;5054559;28;20093;-63
2023/09/18 11:55:39;;;;;;;7.95;3.65;;;;;;;21.33;100.00;100328.63;5011756;28;20041;-62
2023/09/18 11:58:27;;;;;;;7.07;3.28;;;;;;;21.31;100.00;100322.66;5053121;28;20051;-62
2023/09/18 12:01:15;;;;;;;8.13;3.60;;;;;;;21.35;100.00;100322.75;5053338;28;20115;-62
2023/09/18 12:04:08;;;;;;;12.25;3.33;;;;;;;21.44;100.00;100318.69;5054780;28;20044;-63
2023/09/18 12:06:56;;;;;;;9.30;3.20;;;;;;;21.52;100.00;100319.66;5053724;28;20076;-62
2023/09/18 12:09:44;;;;;;;7.22;3.35;;;;;;;21.57;100.00;100316.63;5035675;28;20045;-63
2023/09/18 12:12:32;;;;;;;7.90;3.22;;;;;;;21.72;100.00;100314.25;5033388;28;20049;-63
2023/09/18 12:15:20;;;;;;;7.32;3.03;;;;;;;21.62;100.00;100312.81;5034900;28;20108;-63
2023/09/18 12:18:12;;;;;;;11.25;3.83;;;;;;;21.73;100.00;100305.59;5045956;28;20048;-63
2023/09/18 12:21:04;;;;;;;5.63;3.03;;;;;;;21.68;100.00;100303.88;5038367;28;20037;-63
2023/09/18 12:23:52;;;;;;;5.15;3.20;;;;;;;21.77;100.00;100298.16;5039239;28;20056;-63
2023/09/18 12:26:41;;;;;;;7.38;3.22;;;;;;;21.78;100.00;100302.53;5049523;28;20052;-63
2023/09/18 12:29:32;;;;;;;6.75;3.08;;;;;;;21.82;99.29;100300.69;5037524;28;20124;-63
2023/09/18 12:32:20;;;;;;;12.60;3.15;;;;;;;21.85;97.69;100299.16;5034902;28;20095;-62
2023/09/18 12:35:09;;;;;;;9.00;3.22;;;;;;;21.95;98.03;100304.16;5033653;28;20049;-63
2023/09/18 12:38:00;;;;;;;6.07;2.90;;;;;;;21.92;97.91;100299.34;5044661;28;20060;-62
2023/09/18 12:40:49;;;;;;;4.75;2.40;;;;;;;22.04;99.75;100290.91;5037950;28;20548;-62
2023/09/18 12:43:39;;;;;;;7.00;2.88;;;;;;;21.99;96.77;100298.72;5024408;28;20045;-62
2023/09/18 12:46:28;;;;;;;8.10;3.58;;;;;;;21.99;93.04;100293.97;5039322;28;20052;-62
2023/09/18 12:49:20;;;;;;;7.35;3.13;;;;;;;22.00;94.42;100278.13;5030912;28;20073;-62
2023/09/18 12:52:08;;;;;;;10.45;3.58;;;;;;;22.01;93.07;100280.53;5033850;28;20123;-63
2023/09/18 12:54:57;;;;;;;6.30;2.90;;;;;;;22.08;95.81;100274.34;5043205;28;20049;-63